Longwood, Florida
Current Conditions -  °F | °C
As of 7:53 AM on Friday 31 Oct 2014 (Local Time) from KSFB Reporting Station
Broken Clouds Broken Clouds  
Wind Chill: 66°   Ceiling: 5500
Heat Index: 66°   Visibility: 10mi
Dew Point: 61°   Wind: 3mph
Humidity: 84%   Direction: 300°WNW
Pressure: 29.86"   Gusts: NA
Location:  28.7°N, 81.35°W
Report Text: KSFB 311153Z 30003KT 10SM BKN055 BKN075 19/16 A2986 RMK AO2 SLP111 T01890161 10200 20189 53008
Loading
Personal Weather Stations






























Interactive Weather Map
Tropical Storm Tracking
New forecast layout! Learn more

10-Day Weather Forecast

Advertisements
Track Severe Weather on mobile